RJNT

Details ICAO RJNT (TOY)
Name TOYAMA
Region Japan
Timezone Asia/Tokyo (UTC+9.0)
Plans Departing 28
Arriving 34
Stats Elevation 95 ft / 29 m (AMSL)
Location 36.648423° 137.187412°
Runways 1
Magnetic Variation 8.145° W
Sunrise 2018-05-27 19:37:29 UTC / 2018-05-28 04:37:29 Local
Sunset 2018-05-28 10:02:21 UTC / 2018-05-28 19:02:21 Local
Advertisement - Login to hide

Runways

ID Width Length Bearing (true) Bearing (mag) Surface Threshold Offset Overrun Length
02 150 ft / 46 m 6,575 ft / 2,004 m 13.53° 21.68° Asphalt 0 ft / 0 m 200 ft / 61 m
20 150 ft / 46 m 6,575 ft / 2,004 m 193.53° 201.68° Asphalt 0 ft / 0 m 200 ft / 61 m

Approach Navaids

Runway Type Ident Frequency Range Bearing (true) Bearing (mag) Slope Elevation
20 Localiser ITO 109.30 MHz 18 nm / 33 km 197.21° 205.36° - 95 ft / 29 m (AMSL)
20 DME ITO 109.30 MHz 18 nm / 33 km - - - 98 ft / 30 m (AMSL)

Map

Weather


0- 5 10 15 20 25 30 35+ Temperature / ° C

Clouds and Precipitation
Forecast for 2018-05-28 00:00 UTC. Updated 5 hours ago

Ground ~20,000 ft ~40,000 ft Winds

METAR

Not found

TAF

TAF RJNT 272305Z 2800/2906 36005KT 9999 FEW030 BECMG 2810/2812 18004KT BECMG 2900/2903 36006KT

Frequencies

Tower 126.20 MHz TWR
Tower 124.30 MHz TWR
Warning: Do not use this data for real-world aviation or navigation. No guarantee of current accuracy is given.